createdAt,value
2018-05-14T00:04:35.028Z,83.30
2018-05-14T00:10:03.192Z,83.30
2018-05-14T00:15:31.360Z,83.20
2018-05-14T00:21:00.464Z,83.30
2018-05-14T00:26:28.616Z,83.30
2018-05-14T00:31:57.533Z,83.30
2018-05-14T00:37:26.309Z,83.30
2018-05-14T00:42:54.471Z,83.30
2018-05-14T00:48:22.607Z,83.40
2018-05-14T00:53:50.786Z,83.40
2018-05-14T00:59:18.919Z,83.60
2018-05-14T01:04:47.056Z,83.40
2018-05-14T01:10:15.200Z,83.50
2018-05-14T01:15:44.111Z,84.50
2018-05-14T01:21:12.256Z,83.60
2018-05-14T01:26:40.403Z,83.70
2018-05-14T01:32:08.555Z,83.70
2018-05-14T01:37:36.746Z,83.80
2018-05-14T01:43:04.910Z,83.80
2018-05-14T01:48:33.077Z,84.00
2018-05-14T01:54:02.082Z,84.20
2018-05-14T01:59:30.244Z,84.20
2018-05-14T02:04:58.399Z,84.30
2018-05-14T02:10:26.553Z,84.50
2018-05-14T02:15:55.481Z,84.60
2018-05-14T02:21:23.633Z,84.60
2018-05-14T02:26:51.787Z,84.60
2018-05-14T02:32:19.932Z,84.70
2018-05-14T02:37:48.081Z,84.90
2018-05-14T02:43:16.989Z,84.90
2018-05-14T02:48:45.142Z,85.00
2018-05-14T02:54:14.065Z,85.20
2018-05-14T02:59:42.222Z,85.30
2018-05-14T03:05:10.429Z,85.10
2018-05-14T03:10:38.600Z,85.70
2018-05-14T03:16:06.788Z,85.10
2018-05-14T03:21:34.950Z,85.20
2018-05-14T03:27:03.937Z,85.20
2018-05-14T03:32:32.085Z,85.20
2018-05-14T03:38:00.469Z,85.10
2018-05-14T03:43:28.620Z,85.20
2018-05-14T03:48:56.794Z,85.20
2018-05-14T03:54:25.705Z,85.10
2018-05-14T04:00:11.624Z,85.10
2018-05-14T04:05:57.802Z,85.10
2018-05-14T04:11:25.973Z,85.20
2018-05-14T04:16:55.282Z,85.20
2018-05-14T04:22:23.428Z,85.40
2018-05-14T04:27:51.575Z,85.30
2018-05-14T04:33:19.741Z,85.20
2018-05-14T04:38:48.678Z,85.20
2018-05-14T04:44:17.600Z,85.20
2018-05-14T04:49:45.740Z,85.20
2018-05-14T04:55:13.875Z,85.40
2018-05-14T05:00:42.065Z,85.30
2018-05-14T05:06:11.009Z,85.50
2018-05-14T05:11:39.999Z,85.40
2018-05-14T05:17:08.173Z,85.20
2018-05-14T05:22:37.125Z,85.10
2018-05-14T05:28:05.318Z,85.00
2018-05-14T05:33:34.266Z,84.80
2018-05-14T05:39:02.506Z,84.70
2018-05-14T05:44:30.629Z,84.50
2018-05-14T05:49:58.789Z,84.60
2018-05-14T05:55:26.950Z,84.60
2018-05-14T06:00:55.889Z,84.30
2018-05-14T06:06:24.041Z,84.20
2018-05-14T06:11:52.176Z,84.30
2018-05-14T06:17:20.327Z,84.20
2018-05-14T06:22:48.472Z,84.00
2018-05-14T06:28:16.615Z,84.00
2018-05-14T06:33:45.514Z,83.00
2018-05-14T06:39:14.417Z,82.90
2018-05-14T06:44:42.573Z,82.80
2018-05-14T06:50:11.525Z,82.40
2018-05-14T06:55:39.700Z,82.40
2018-05-14T07:01:07.875Z,82.00
2018-05-14T07:06:36.021Z,81.80
2018-05-14T07:12:04.221Z,81.10
2018-05-14T07:17:32.378Z,81.00
2018-05-14T07:23:00.549Z,80.70
2018-05-14T07:28:28.698Z,80.60
2018-05-14T07:33:56.851Z,80.00
2018-05-14T07:39:25.001Z,79.50
2018-05-14T07:44:53.153Z,79.10
2018-05-14T07:50:21.316Z,78.30
2018-05-14T07:55:49.457Z,78.00
2018-05-14T08:01:17.633Z,78.50
2018-05-14T08:06:45.784Z,77.90
2018-05-14T08:12:14.741Z,77.40
2018-05-14T08:17:42.887Z,77.30
2018-05-14T08:23:11.103Z,77.30
2018-05-14T08:28:39.212Z,77.00
2018-05-14T08:34:07.389Z,76.70
2018-05-14T08:39:36.368Z,76.30
2018-05-14T08:45:04.534Z,76.30
2018-05-14T08:50:32.717Z,76.30
2018-05-14T08:56:00.881Z,75.40
2018-05-14T09:01:29.028Z,75.60
2018-05-14T09:06:57.938Z,74.50
2018-05-14T09:12:26.071Z,74.40
2018-05-14T09:17:55.017Z,73.20
2018-05-14T09:23:23.917Z,73.10
2018-05-14T09:28:52.105Z,73.10
2018-05-14T09:34:20.266Z,72.70
2018-05-14T09:39:48.424Z,72.00
2018-05-14T09:45:17.343Z,69.10
2018-05-14T09:50:46.251Z,70.80
2018-05-14T09:56:14.411Z,70.10
2018-05-14T10:01:43.339Z,68.50
2018-05-14T10:07:12.250Z,67.90
2018-05-14T10:12:40.420Z,67.40
2018-05-14T10:18:08.593Z,67.90
2018-05-14T10:23:36.764Z,67.00
2018-05-14T10:29:04.916Z,66.00
2018-05-14T10:34:33.130Z,66.30
2018-05-14T10:40:01.281Z,65.30
2018-05-14T10:45:30.221Z,63.90
2018-05-14T10:50:58.375Z,63.80
2018-05-14T10:56:27.291Z,63.80
2018-05-14T11:01:56.189Z,64.10
2018-05-14T11:07:24.346Z,64.00
2018-05-14T11:12:53.249Z,62.60
2018-05-14T11:18:21.416Z,62.30
2018-05-14T11:23:50.328Z,60.80
2018-05-14T11:29:18.505Z,61.00
2018-05-14T11:34:46.665Z,60.30
2018-05-14T11:40:14.805Z,60.90
2018-05-14T11:45:43.754Z,61.30
2018-05-14T11:51:12.670Z,59.80
2018-05-14T11:56:40.907Z,59.70
2018-05-14T12:02:09.064Z,60.80
2018-05-14T12:07:37.231Z,60.50
2018-05-14T12:13:05.513Z,59.80
2018-05-14T12:18:33.675Z,60.40
2018-05-14T12:24:02.596Z,58.10
2018-05-14T12:29:30.753Z,58.00
2018-05-14T12:34:58.918Z,58.20
2018-05-14T12:40:27.061Z,58.80
2018-05-14T12:45:55.198Z,58.90
2018-05-14T12:51:24.114Z,58.70
2018-05-14T12:56:52.269Z,58.60
2018-05-14T13:02:21.185Z,59.10
2018-05-14T13:07:49.337Z,59.10
2018-05-14T13:13:17.515Z,59.00
2018-05-14T13:18:45.656Z,58.60
2018-05-14T13:24:14.576Z,58.50
2018-05-14T13:29:42.742Z,58.50
2018-05-14T13:35:10.905Z,59.00
2018-05-14T13:40:39.709Z,58.60
2018-05-14T13:46:08.715Z,58.30
2018-05-14T13:51:37.675Z,58.20
2018-05-14T13:57:05.911Z,58.20
2018-05-14T14:02:34.116Z,57.80
2018-05-14T14:08:02.287Z,57.50
2018-05-14T14:13:30.457Z,56.30
2018-05-14T14:18:58.608Z,56.30
2018-05-14T14:24:26.803Z,56.70
2018-05-14T14:29:54.930Z,58.10
2018-05-14T14:35:23.096Z,57.70
2018-05-14T14:40:51.243Z,55.80
2018-05-14T14:46:19.477Z,51.30
2018-05-14T14:51:47.556Z,49.80
2018-05-14T14:57:15.704Z,48.60
2018-05-14T15:02:43.872Z,49.20
2018-05-14T15:08:12.056Z,50.50
2018-05-14T15:13:40.230Z,52.50
2018-05-14T15:19:08.409Z,53.60
2018-05-14T15:24:36.606Z,54.10
2018-05-14T15:30:04.818Z,53.80
2018-05-14T15:35:33.005Z,52.60
2018-05-14T15:41:01.262Z,51.80
2018-05-14T15:46:30.164Z,49.70
2018-05-14T15:51:58.308Z,49.60
2018-05-14T15:57:27.217Z,49.20
2018-05-14T16:02:55.345Z,49.20
2018-05-14T16:08:23.495Z,47.80
2018-05-14T16:13:52.506Z,45.50
2018-05-14T16:19:20.591Z,45.50
2018-05-14T16:24:48.727Z,44.30
2018-05-14T16:30:16.874Z,44.80
2018-05-14T16:35:45.805Z,45.40
2018-05-14T16:41:13.948Z,45.30
2018-05-14T16:46:42.890Z,46.10
2018-05-14T16:52:11.824Z,45.90
2018-05-14T16:57:40.139Z,45.90
2018-05-14T17:03:08.249Z,45.40
2018-05-14T17:08:37.361Z,45.20
2018-05-14T17:14:05.545Z,45.20
2018-05-14T17:19:33.753Z,45.40
2018-05-14T17:25:02.560Z,45.80
2018-05-14T17:30:30.705Z,45.40
2018-05-14T17:35:58.850Z,45.50
2018-05-14T17:41:26.985Z,45.90
2018-05-14T17:46:55.183Z,46.20
2018-05-14T17:52:24.079Z,47.00
2018-05-14T17:57:52.224Z,46.90
2018-05-14T18:03:20.357Z,47.10
2018-05-14T18:08:48.511Z,47.90
2018-05-14T18:14:27.405Z,47.70
2018-05-14T18:20:01.097Z,47.90
2018-05-14T18:25:39.719Z,48.00
2018-05-14T18:37:15.651Z,49.10
2018-05-14T18:42:43.796Z,49.60
2018-05-14T18:48:12.031Z,50.20
2018-05-14T18:53:40.993Z,50.90
2018-05-14T18:59:09.941Z,51.10
2018-05-14T19:04:38.334Z,51.70
2018-05-14T19:10:12.838Z,51.50
2018-05-14T19:15:46.565Z,51.50
2018-05-14T19:21:15.504Z,51.90
2018-05-14T19:26:44.441Z,52.00
2018-05-14T19:32:13.341Z,52.20
2018-05-14T19:37:41.554Z,52.20
2018-05-14T19:43:12.870Z,52.50
2018-05-14T19:48:41.129Z,52.60
2018-05-14T19:54:09.464Z,52.70
2018-05-14T19:59:39.526Z,53.10
2018-05-14T20:05:07.768Z,53.10
2018-05-14T20:10:35.924Z,53.20
2018-05-14T20:16:04.100Z,53.50
2018-05-14T20:21:34.351Z,53.90
2018-05-14T20:27:03.730Z,54.00
2018-05-14T20:32:32.784Z,53.90
2018-05-14T20:38:01.053Z,53.70
2018-05-14T20:43:29.227Z,53.80
2018-05-14T20:48:57.378Z,54.30
2018-05-14T20:54:25.521Z,54.40
2018-05-14T20:59:53.748Z,54.30
2018-05-14T21:05:22.068Z,54.20
2018-05-14T21:10:50.216Z,54.50
2018-05-14T21:16:18.377Z,54.30
2018-05-14T21:21:46.522Z,54.30
2018-05-14T21:27:14.673Z,54.30
2018-05-14T21:32:42.799Z,54.20
2018-05-14T21:38:11.079Z,54.50
2018-05-14T21:43:39.239Z,54.80
2018-05-14T21:49:07.414Z,55.00
2018-05-14T21:54:36.384Z,56.40
2018-05-14T22:00:04.717Z,56.30
2018-05-14T22:05:33.846Z,55.70
2018-05-14T22:11:02.004Z,55.70
2018-05-14T22:16:30.173Z,56.00
2018-05-14T22:21:58.318Z,56.00
2018-05-14T22:27:26.461Z,56.00
2018-05-14T22:32:54.583Z,56.40
2018-05-14T22:38:22.716Z,56.80
2018-05-14T22:43:50.860Z,56.90
2018-05-14T22:49:18.991Z,56.80
2018-05-14T22:54:47.132Z,57.10
2018-05-14T23:06:16.673Z,57.30
2018-05-14T23:11:44.820Z,57.60
2018-05-14T23:17:21.572Z,58.30
2018-05-14T23:22:49.741Z,58.30
2018-05-14T23:28:17.878Z,58.50
2018-05-14T23:33:46.052Z,60.20
2018-05-14T23:39:14.963Z,62.30
2018-05-14T23:44:43.114Z,62.40
2018-05-14T23:50:11.269Z,63.30
2018-05-14T23:55:39.427Z,64.00
